Time;durP1;ratioP1;P1;durP2;ratioP2;P2;SDS_P1;SDS_P2;PMS_P1;PMS_P2;Temp;Humidity;BMP_temperature;BMP_pressure;BME280_temperature;BME280_humidity;BME280_pressure;Samples;Min_cycle;Max_cycle;Signal;HPM_P1;HPM_P2
2022/06/16 00:02:12;;;;;;;;;7.33;7.33;;;;;22.46;100.00;101261.41;5051695;28;45412;-77
2022/06/16 00:04:37;;;;;;;;;6.00;6.00;;;;;22.28;100.00;101238.44;5051959;28;45796;-78
2022/06/16 00:07:03;;;;;;;;;8.67;8.00;;;;;22.32;100.00;101259.16;5046902;28;45828;-76
2022/06/16 00:09:28;;;;;;;;;10.33;9.33;;;;;22.35;100.00;101261.41;5044130;28;45859;-77
2022/06/16 00:11:54;;;;;;;;;11.33;11.33;;;;;22.32;100.00;101269.47;5045921;28;47351;-77
2022/06/16 00:14:20;;;;;;;;;10.00;10.00;;;;;22.26;100.00;101273.34;5048119;28;45799;-75
2022/06/16 00:16:45;;;;;;;;;12.67;8.67;;;;;22.20;100.00;101264.09;5031822;28;45436;-75
2022/06/16 00:19:12;;;;;;;;;8.00;8.00;;;;;22.21;100.00;101271.38;5037512;28;45436;-76
2022/06/16 00:21:40;;;;;;;;;13.33;11.33;;;;;22.17;100.00;101270.22;5035858;28;45309;-75
2022/06/16 00:24:06;;;;;;;;;10.00;7.67;;;;;22.13;100.00;101281.13;5034978;28;46005;-76
2022/06/16 00:26:32;;;;;;;;;9.33;9.33;;;;;22.02;100.00;101266.28;5039665;28;46280;-77
2022/06/16 00:28:57;;;;;;;;;12.00;10.33;;;;;22.01;100.00;101272.16;5038272;28;45886;-75
2022/06/16 00:31:23;;;;;;;;;9.00;9.00;;;;;22.03;100.00;101275.50;5033530;28;45719;-77
2022/06/16 00:33:50;;;;;;;;;8.33;8.33;;;;;21.98;100.00;101284.69;5032714;28;47331;-76
2022/06/16 00:36:15;;;;;;;;;11.67;10.33;;;;;21.86;100.00;101268.16;5051083;28;46005;-76
2022/06/16 00:38:42;;;;;;;;;11.00;9.33;;;;;21.91;100.00;101283.28;5050379;28;45507;-76
2022/06/16 00:41:09;;;;;;;;;11.00;10.33;;;;;21.89;100.00;101291.91;5018030;28;46021;-76
2022/06/16 00:43:34;;;;;;;;;11.67;10.00;;;;;21.88;100.00;101300.56;5030319;28;46257;-74
2022/06/16 00:46:01;;;;;;;;;11.33;11.00;;;;;21.85;100.00;101299.16;5034953;28;45715;-75
2022/06/16 00:48:58;;;;;;;;;9.00;9.00;;;;;21.81;100.00;101307.25;5030256;28;46033;-75
2022/06/16 00:51:41;;;;;;;;;9.67;9.33;;;;;21.76;100.00;101298.00;5038430;28;46282;-75
2022/06/16 00:54:21;;;;;;;;;6.67;6.67;;;;;21.73;100.00;101301.31;5048655;28;45746;-77
2022/06/16 00:56:51;;;;;;;;;11.33;10.67;;;;;21.63;100.00;101293.72;5052342;28;45764;-76
2022/06/16 00:59:19;;;;;;;;;17.00;12.33;;;;;21.67;100.00;101312.44;5043692;28;45540;-76
2022/06/16 01:01:45;;;;;;;;;12.00;11.67;;;;;21.65;100.00;101309.09;5043584;28;45740;-74
2022/06/16 01:07:04;;;;;;;;;15.33;11.33;;;;;21.57;100.00;101323.56;5035810;28;45390;-76
2022/06/16 01:09:32;;;;;;;;;11.67;9.67;;;;;21.43;100.00;101300.81;5036544;28;45799;-74
2022/06/16 01:15:14;;;;;;;;;11.33;8.67;;;;;21.49;100.00;101332.41;5045642;28;45909;-74
2022/06/16 01:17:50;;;;;;;;;9.67;9.67;;;;;21.45;100.00;101329.31;5037267;28;45596;-74
2022/06/16 01:20:51;;;;;;;;;12.00;10.33;;;;;21.44;100.00;101340.75;5031695;28;45656;-75
2022/06/16 01:23:44;;;;;;;;;11.33;10.67;;;;;21.41;100.00;101346.88;5034026;28;45537;-73
2022/06/16 01:26:35;;;;;;;;;16.00;12.33;;;;;21.36;100.00;101352.38;5044471;28;45702;-79
2022/06/16 01:29:17;;;;;;;;;10.67;9.33;;;;;21.20;100.00;101335.53;5046645;28;45643;-78
2022/06/16 01:31:46;;;;;;;;;9.67;8.67;;;;;21.31;100.00;101350.41;5032720;28;45373;-78
2022/06/16 01:34:27;;;;;;;;;12.00;11.33;;;;;21.28;100.00;101354.56;5051438;28;45949;-76
2022/06/16 01:37:04;;;;;;;;;10.00;10.00;;;;;21.26;100.00;101356.78;5022503;28;46943;-75
2022/06/16 01:39:49;;;;;;;;;11.67;8.67;;;;;21.24;100.00;101355.34;5049504;28;45762;-75
2022/06/16 01:42:23;;;;;;;;;10.33;9.33;;;;;21.23;100.00;101362.03;5050469;28;45482;-75
2022/06/16 01:45:00;;;;;;;;;12.67;12.67;;;;;21.16;100.00;101356.69;5044638;28;45747;-75
2022/06/16 01:47:29;;;;;;;;;12.67;10.33;;;;;21.16;100.00;101373.44;5044701;28;47055;-76
2022/06/16 01:50:01;;;;;;;;;10.33;10.33;;;;;21.13;100.00;101372.00;5052337;28;45826;-76
2022/06/16 01:52:40;;;;;;;;;13.67;11.33;;;;;21.09;100.00;101367.22;5029684;28;45753;-76
2022/06/16 01:55:11;;;;;;;;;11.67;9.67;;;;;21.08;100.00;101373.91;5051381;28;45983;-75
2022/06/16 01:57:56;;;;;;;;;10.00;10.00;;;;;21.03;100.00;101379.44;5053889;28;45985;-76
2022/06/16 02:00:25;;;;;;;;;10.67;10.67;;;;;21.05;100.00;101377.22;5031818;28;45846;-76
2022/06/16 02:02:59;;;;;;;;;13.67;10.67;;;;;20.99;100.00;101376.34;5053249;28;45764;-77
2022/06/16 02:05:36;;;;;;;;;18.33;12.33;;;;;20.98;100.00;101386.63;5031734;28;45810;-75
2022/06/16 02:08:26;;;;;;;;;8.33;8.33;;;;;20.92;100.00;101387.69;5051037;28;45427;-73
2022/06/16 02:10:59;;;;;;;;;12.67;12.33;;;;;20.92;100.00;101390.47;5053174;28;45560;-74
2022/06/16 02:13:30;;;;;;;;;14.00;11.33;;;;;20.83;100.00;101388.44;5052609;28;45673;-74
2022/06/16 02:16:13;;;;;;;;;10.67;10.67;;;;;20.86;100.00;101390.69;5050053;28;45965;-75
2022/06/16 02:18:41;;;;;;;;;12.67;11.00;;;;;20.64;100.00;101361.72;5053224;28;46266;-75
2022/06/16 02:21:15;;;;;;;;;12.00;9.67;;;;;20.79;100.00;101394.53;5051829;28;45568;-76
2022/06/16 02:23:41;;;;;;;;;12.00;10.00;;;;;20.74;100.00;101388.88;5042809;28;45568;-75
2022/06/16 02:26:07;;;;;;;;;6.33;5.33;;;;;20.73;100.00;101386.38;5042833;28;45492;-73
2022/06/16 02:28:49;;;;;;;;;11.00;11.00;;;;;20.71;100.00;101385.78;5053296;28;45411;-74
2022/06/16 02:31:33;;;;;;;;;11.67;11.67;;;;;20.71;100.00;101389.41;5052611;28;45856;-73
2022/06/16 02:34:37;;;;;;;;;14.00;10.67;;;;;20.69;100.00;101386.06;5044699;28;45499;-73
2022/06/16 02:37:02;;;;;;;;;13.33;12.33;;;;;20.69;100.00;101390.78;5015444;28;45744;-76
2022/06/16 02:39:57;;;;;;;;;11.00;10.33;;;;;20.50;100.00;101360.44;5042923;28;45424;-74
2022/06/16 02:42:44;;;;;;;;;11.33;10.33;;;;;20.62;100.00;101390.97;5019708;28;45451;-73
2022/06/16 02:45:22;;;;;;;;;13.67;11.67;;;;;20.60;100.00;101393.19;5042194;28;45762;-75
2022/06/16 02:48:04;;;;;;;;;10.67;9.00;;;;;20.56;100.00;101398.41;5022922;28;46613;-74
2022/06/16 02:50:50;;;;;;;;;16.67;12.33;;;;;20.51;100.00;101401.16;5045067;28;46336;-73
2022/06/16 02:53:45;;;;;;;;;12.33;12.33;;;;;20.48;100.00;101406.38;5046186;28;45783;-73
2022/06/16 02:56:36;;;;;;;;;12.00;10.67;;;;;20.42;100.00;101411.06;5050245;28;45849;-73
2022/06/16 02:59:08;;;;;;;;;10.00;9.33;;;;;20.40;100.00;101416.03;5045255;28;45469;-74
2022/06/16 03:01:34;;;;;;;;;12.00;11.67;;;;;20.36;100.00;101409.28;5037832;28;45549;-74
2022/06/16 03:04:13;;;;;;;;;12.67;11.00;;;;;20.32;100.00;101406.19;5043989;28;45375;-73
2022/06/16 03:06:38;;;;;;;;;13.67;11.00;;;;;20.33;100.00;101404.22;5046757;28;45858;-74
2022/06/16 03:09:05;;;;;;;;;12.33;10.67;;;;;20.29;100.00;101404.75;5033981;28;45779;-73
2022/06/16 03:11:32;;;;;;;;;16.67;10.67;;;;;20.27;100.00;101406.13;5052022;28;46292;-74
2022/06/16 03:13:57;;;;;;;;;15.67;15.67;;;;;20.18;100.00;101408.50;5052483;28;45427;-74
2022/06/16 03:16:23;;;;;;;;;15.67;12.33;;;;;20.14;100.00;101404.56;5043140;28;45368;-74
2022/06/16 03:18:49;;;;;;;;;17.33;15.33;;;;;20.20;100.00;101419.41;5043384;28;45735;-75
2022/06/16 03:21:14;;;;;;;;;15.00;11.00;;;;;20.18;100.00;101425.22;5042152;28;46748;-75
2022/06/16 03:23:40;;;;;;;;;15.67;11.67;;;;;20.17;100.00;101423.53;5030827;28;45876;-73
2022/06/16 03:26:05;;;;;;;;;15.33;12.67;;;;;20.15;100.00;101431.31;5051435;28;46149;-74
2022/06/16 03:28:31;;;;;;;;;11.67;11.67;;;;;20.13;100.00;101435.44;5051899;28;45412;-73
2022/06/16 03:30:56;;;;;;;;;15.67;11.33;;;;;20.11;100.00;101430.97;5047903;28;46019;-76
2022/06/16 03:33:22;;;;;;;;;18.67;13.33;;;;;19.99;100.00;101421.06;5006147;28;45459;-75
2022/06/16 03:35:48;;;;;;;;;9.67;8.67;;;;;20.08;100.00;101436.22;5039010;28;45812;-75
2022/06/16 03:41:00;;;;;;;;;21.33;14.33;;;;;20.10;100.00;101439.56;5052538;28;45470;-75
2022/06/16 03:43:25;;;;;;;;;15.67;14.67;;;;;20.06;100.00;101432.81;5051967;28;45755;-74
2022/06/16 03:45:51;;;;;;;;;11.33;11.33;;;;;20.06;100.00;101427.25;5042550;28;46111;-77
2022/06/16 03:48:17;;;;;;;;;13.67;12.67;;;;;20.08;100.00;101439.00;5047727;28;45859;-74
2022/06/16 03:50:42;;;;;;;;;16.33;14.00;;;;;20.09;100.00;101437.91;5036224;28;45503;-74
2022/06/16 03:53:08;;;;;;;;;11.33;10.33;;;;;20.10;100.00;101436.78;5041532;28;46716;-75
2022/06/16 03:55:34;;;;;;;;;9.00;9.00;;;;;20.13;100.00;101433.50;5036233;28;46099;-73
2022/06/16 03:57:59;;;;;;;;;12.67;12.00;;;;;20.15;100.00;101436.88;5036436;28;45399;-77
2022/06/16 04:00:25;;;;;;;;;15.00;10.67;;;;;20.26;100.00;101438.69;5050552;28;45743;-74
2022/06/16 04:05:36;;;;;;;;;14.33;13.33;;;;;20.50;100.00;101444.03;5049611;28;45580;-74
2022/06/16 04:08:01;;;;;;;;;13.67;10.33;;;;;20.61;100.00;101439.44;5050585;28;45545;-74
2022/06/16 04:10:27;;;;;;;;;14.00;13.33;;;;;20.88;100.00;101444.25;5051622;28;46140;-74
2022/06/16 04:12:52;;;;;;;;;15.00;14.00;;;;;21.08;100.00;101427.75;5039958;28;45747;-75
2022/06/16 04:15:18;;;;;;;;;12.33;11.00;;;;;21.37;100.00;101443.38;5037695;28;45655;-74
2022/06/16 04:17:43;;;;;;;;;18.33;15.00;;;;;21.50;100.00;101440.19;5041668;28;46146;-74
2022/06/16 04:20:12;;;;;;;;;11.00;11.00;;;;;21.72;100.00;101436.44;5034992;28;45994;-74
2022/06/16 04:22:37;;;;;;;;;11.00;10.00;;;;;22.06;100.00;101438.91;5050731;28;45764;-75
2022/06/16 04:25:04;;;;;;;;;13.67;11.00;;;;;22.45;100.00;101444.19;5020599;28;45443;-75
2022/06/16 04:27:30;;;;;;;;;14.33;13.33;;;;;22.85;100.00;101449.13;5050529;28;45836;-75
2022/06/16 04:29:55;;;;;;;;;14.00;14.00;;;;;23.24;100.00;101445.06;5051662;28;45792;-75
2022/06/16 04:32:23;;;;;;;;;18.33;13.33;;;;;23.69;100.00;101451.81;5053226;28;45382;-82
2022/06/16 04:34:50;;;;;;;;;13.00;13.00;;;;;24.20;100.00;101444.50;5055818;28;45510;-80
2022/06/16 04:37:16;;;;;;;;;19.00;16.67;;;;;24.73;100.00;101444.91;5024588;28;46189;-82
2022/06/16 04:39:41;;;;;;;;;14.67;14.67;;;;;25.41;100.00;101465.84;5030762;28;47396;-75
2022/06/16 04:42:07;;;;;;;;;13.33;13.33;;;;;25.89;100.00;101456.75;5031174;28;45350;-76
2022/06/16 04:44:34;;;;;;;;;14.33;13.67;;;;;26.46;100.00;101465.47;5019059;28;45322;-73
2022/06/16 04:47:02;;;;;;;;;19.33;15.67;;;;;26.89;100.00;101457.06;5021277;28;45738;-75
2022/06/16 04:49:30;;;;;;;;;14.00;13.67;;;;;27.28;99.19;101467.22;5034287;28;48381;-78
2022/06/16 04:51:56;;;;;;;;;21.67;19.00;;;;;27.83;95.04;101471.47;5054741;28;45396;-80
2022/06/16 04:54:45;;;;;;;;;15.33;14.67;;;;;28.45;92.00;101478.78;5053802;28;45320;-79
2022/06/16 04:57:12;;;;;;;;;15.33;13.67;;;;;29.13;88.00;101464.94;5051866;28;45443;-79
2022/06/16 04:59:37;;;;;;;;;13.00;12.00;;;;;29.55;84.57;101454.34;5042254;28;46323;-80
2022/06/16 05:02:06;;;;;;;;;15.00;13.00;;;;;30.36;81.61;101470.34;5049977;28;45754;-82
2022/06/16 05:04:35;;;;;;;;;12.00;12.00;;;;;30.97;78.75;101473.41;5057198;28;45767;-78
2022/06/16 05:07:01;;;;;;;;;15.33;14.00;;;;;31.62;75.17;101490.66;5053714;28;45839;-79
2022/06/16 05:09:46;;;;;;;;;15.67;14.67;;;;;32.12;72.64;101491.28;5049975;28;45529;-78
2022/06/16 05:12:12;;;;;;;;;15.67;15.67;;;;;32.80;68.88;101499.03;5051680;28;45441;-77
2022/06/16 05:14:59;;;;;;;;;14.67;12.67;;;;;33.45;64.52;101496.78;5049160;28;45584;-80
2022/06/16 05:17:26;;;;;;;;;12.00;11.00;;;;;33.94;60.75;101479.94;5049499;28;45801;-80
2022/06/16 05:20:33;;;;;;;;;14.33;12.33;;;;;34.63;59.13;101502.25;5044290;28;46071;-78
2022/06/16 05:23:34;;;;;;;;;15.67;12.33;;;;;35.19;55.16;101473.94;5026045;28;45792;-78
2022/06/16 05:26:17;;;;;;;;;14.00;13.67;;;;;35.99;48.85;101516.25;4996079;28;46000;-78
2022/06/16 05:29:34;;;;;;;;;;;;;;;;;;;;;
2022/06/16 05:32:58;;;;;;;;;12.00;11.00;;;;;37.31;44.59;101531.47;5047333;28;74322;-80
2022/06/16 05:36:09;;;;;;;;;;;;;;;;;;;;;
2022/06/16 05:38:57;;;;;;;;;16.67;11.67;;;;;38.34;36.99;101491.84;5033679;28;68502;-79
2022/06/16 05:41:46;;;;;;;;;11.00;11.00;;;;;38.99;37.27;101533.09;5037620;28;45739;-79
2022/06/16 05:47:40;;;;;;;;;13.67;12.00;;;;;40.31;32.82;101556.16;5041954;28;45589;-79
2022/06/16 05:50:57;;;;;;;;;11.33;10.33;;;;;40.79;33.06;101558.25;5046762;28;45721;-81
2022/06/16 05:57:21;;;;;;;;;14.33;13.00;;;;;41.96;29.73;101559.38;4925648;28;46135;-79
2022/06/16 06:25:51;;;;;;;;;11.33;10.00;;;;;45.30;22.79;101576.81;4930471;28;45385;-80
2022/06/16 06:47:29;;;;;;;;;8.33;8.33;;;;;49.04;18.37;101596.44;4698491;30;46592;-82
2022/06/16 06:49:56;;;;;;;;;8.33;7.00;;;;;49.22;17.60;101544.31;4750082;29;45929;-77
2022/06/16 06:52:22;;;;;;;;;7.67;7.33;;;;;49.62;16.98;101584.81;4959872;28;46507;-82
2022/06/16 06:54:51;;;;;;;;;9.67;7.00;;;;;49.80;16.51;101583.47;5004152;28;45456;-81
2022/06/16 06:57:21;;;;;;;;;9.33;8.00;;;;;50.15;16.86;101575.66;5035032;28;45843;-81
2022/06/16 06:59:47;;;;;;;;;11.67;7.67;;;;;51.08;16.28;101575.91;5038302;28;45438;-77
2022/06/16 07:02:17;;;;;;;;;7.00;7.00;;;;;51.44;15.71;101615.53;5017810;28;46969;-79
2022/06/16 07:04:43;;;;;;;;;6.33;6.33;;;;;51.65;14.83;101605.94;5020304;28;46242;-81
2022/06/16 07:07:12;;;;;;;;;5.00;5.00;;;;;51.92;14.72;101610.31;5035907;28;45918;-79
2022/06/16 07:09:40;;;;;;;;;6.00;6.00;;;;;51.87;14.47;101584.63;5037889;28;45832;-80
2022/06/16 07:12:13;;;;;;;;;6.00;6.00;;;;;52.50;13.62;101597.13;5018889;28;47925;-81
2022/06/16 07:14:50;;;;;;;;;6.00;5.33;;;;;52.71;14.12;101624.69;5024175;28;45871;-79
2022/06/16 07:17:19;;;;;;;;;7.00;5.67;;;;;53.07;13.45;101623.13;5020506;28;45406;-80
2022/06/16 07:19:44;;;;;;;;;6.00;5.00;;;;;53.47;13.42;101621.38;5016879;28;46161;-80
2022/06/16 07:22:10;;;;;;;;;5.00;5.00;;;;;53.25;13.34;101636.19;5020795;28;47579;-83
2022/06/16 07:24:36;;;;;;;;;7.00;6.00;;;;;53.33;13.43;101604.41;5016124;28;45487;-80
2022/06/16 07:27:03;;;;;;;;;7.33;6.67;;;;;53.38;13.03;101613.38;5030153;28;45774;-81
2022/06/16 07:29:29;;;;;;;;;7.33;5.33;;;;;53.45;13.00;101615.16;5015186;28;45758;-82
2022/06/16 07:31:58;;;;;;;;;6.00;6.00;;;;;53.87;12.94;101625.38;5031460;28;45498;-80
2022/06/16 07:34:25;;;;;;;;;6.67;5.00;;;;;54.05;12.71;101633.31;5021594;28;45574;-82
2022/06/16 07:36:50;;;;;;;;;5.00;5.00;;;;;54.20;12.33;101613.72;5038425;28;45783;-82
2022/06/16 07:39:16;;;;;;;;;6.00;5.00;;;;;54.61;11.79;101622.16;5021164;28;46080;-80
2022/06/16 07:41:42;;;;;;;;;4.33;3.67;;;;;55.02;11.14;101638.09;5035340;28;47297;-83
2022/06/16 07:44:12;;;;;;;;;3.00;3.00;;;;;55.55;11.71;101639.41;5037616;28;45498;-81
2022/06/16 07:46:40;;;;;;;;;5.67;4.33;;;;;55.80;10.65;101643.09;5035536;28;45550;-82
2022/06/16 07:49:08;;;;;;;;;6.00;4.33;;;;;55.81;10.76;101630.00;5035615;28;45962;-80
2022/06/16 07:51:35;;;;;;;;;6.00;6.00;;;;;55.99;10.65;101642.91;5034686;28;45526;-80
2022/06/16 07:54:01;;;;;;;;;6.67;6.33;;;;;55.96;10.44;101635.91;5019069;28;45308;-80
2022/06/16 07:56:26;;;;;;;;;7.00;5.00;;;;;56.01;9.94;101634.38;5035130;28;45454;-81
2022/06/16 07:58:52;;;;;;;;;5.67;5.67;;;;;55.85;10.48;101626.88;5037534;28;45274;-80
2022/06/16 08:01:18;;;;;;;;;5.33;5.00;;;;;56.48;10.04;101632.47;5033996;28;46587;-79
2022/06/16 08:03:44;;;;;;;;;5.00;5.00;;;;;56.93;9.07;101633.13;5036276;28;45559;-80
2022/06/16 08:06:14;;;;;;;;;3.67;3.00;;;;;57.11;9.00;101631.19;5038079;28;45316;-81
2022/06/16 08:08:40;;;;;;;;;6.67;4.00;;;;;57.29;8.77;101618.28;5031722;28;45475;-79
2022/06/16 08:12:03;;;;;;;;;5.33;4.00;;;;;57.41;9.39;101595.63;5034854;28;46266;-78
2022/06/16 08:13:52;;;;;;;;;4.00;3.67;;;;;57.59;9.08;101621.84;5024152;28;45741;-80
2022/06/16 08:16:17;;;;;;;;;4.67;4.67;;;;;57.68;9.19;101626.75;5035655;28;45880;-80
2022/06/16 08:18:43;;;;;;;;;4.33;3.33;;;;;57.49;9.83;101616.59;5011455;28;45678;-81
2022/06/16 08:21:09;;;;;;;;;6.67;6.67;;;;;57.06;9.15;101638.66;5033920;28;45480;-83
2022/06/16 08:23:34;;;;;;;;;7.67;7.67;;;;;56.88;9.88;101622.09;5037947;28;45526;-81
2022/06/16 08:26:00;;;;;;;;;4.00;4.00;;;;;57.40;9.52;101644.13;5033780;28;45888;-81
2022/06/16 08:28:26;;;;;;;;;7.00;7.00;;;;;57.34;9.08;101631.47;5035534;28;45523;-79
2022/06/16 08:30:51;;;;;;;;;9.00;9.00;;;;;57.70;8.96;101632.13;5036730;28;46825;-81
2022/06/16 08:33:20;;;;;;;;;5.00;5.00;;;;;58.19;8.67;101609.47;5026701;28;46034;-81
2022/06/16 08:35:46;;;;;;;;;4.00;4.00;;;;;58.24;8.22;101596.88;5027414;28;45663;-81
2022/06/16 08:38:13;;;;;;;;;3.00;3.00;;;;;58.36;8.73;101621.41;5039772;28;45464;-81
2022/06/16 08:40:48;;;;;;;;;4.33;4.33;;;;;58.53;9.11;101624.50;5019798;28;45917;-79
2022/06/16 08:43:34;;;;;;;;;4.33;4.33;;;;;58.38;9.24;101632.69;5023609;28;45885;-80
2022/06/16 08:46:06;;;;;;;;;3.33;3.33;;;;;59.06;8.41;101606.50;5018571;28;44854;-80
2022/06/16 08:48:58;;;;;;;;;3.00;3.00;;;;;59.33;8.74;101608.72;5034711;28;45905;-80
2022/06/16 08:51:45;;;;;;;;;3.00;3.00;;;;;59.82;7.60;101631.38;5008098;28;45626;-80
2022/06/16 08:54:17;;;;;;;;;4.67;3.00;;;;;59.77;7.52;101635.13;5038903;28;45656;-80
2022/06/16 08:57:12;;;;;;;;;3.00;3.00;;;;;59.74;8.17;101645.09;5020265;28;45684;-83
2022/06/16 08:59:53;;;;;;;;;2.67;2.67;;;;;59.41;7.50;101637.78;5010353;28;46100;-81
2022/06/16 09:02:49;;;;;;;;;4.00;4.00;;;;;59.27;7.65;101633.69;5018055;28;46384;-83
2022/06/16 09:05:53;;;;;;;;;3.00;2.67;;;;;59.23;8.33;101625.06;5008788;28;45816;-81
2022/06/16 09:08:29;;;;;;;;;5.00;4.00;;;;;59.16;7.48;101625.59;5016580;28;45423;-82
2022/06/16 09:11:17;;;;;;;;;3.00;3.00;;;;;58.77;7.62;101605.53;5015406;28;45865;-81
2022/06/16 09:14:03;;;;;;;;;3.33;3.33;;;;;58.64;7.71;101630.44;5035960;28;45366;-81
2022/06/16 09:16:29;;;;;;;;;3.00;3.00;;;;;58.68;7.52;101628.06;5009314;28;45755;-80
2022/06/16 09:19:07;;;;;;;;;5.67;5.00;;;;;58.33;7.74;101620.34;5036609;28;45438;-82
2022/06/16 09:21:35;;;;;;;;;2.67;2.67;;;;;58.17;8.09;101623.97;5020707;28;46661;-79
2022/06/16 09:24:22;;;;;;;;;2.67;2.67;;;;;58.16;8.18;101631.22;5033893;28;45887;-79
2022/06/16 09:26:50;;;;;;;;;4.00;3.00;;;;;57.52;8.10;101631.16;5038986;28;45477;-79
2022/06/16 09:29:29;;;;;;;;;5.00;3.33;;;;;56.46;8.18;101613.66;5046006;28;45347;-82
2022/06/16 09:32:30;;;;;;;;;3.67;3.67;;;;;55.85;8.52;101632.75;5018303;28;45970;-79
2022/06/16 09:35:20;;;;;;;;;5.00;3.33;;;;;55.75;9.18;101637.91;5022436;28;45888;-82
2022/06/16 09:37:46;;;;;;;;;3.00;3.00;;;;;56.28;8.41;101647.94;5029336;28;45802;-79
2022/06/16 09:40:28;;;;;;;;;4.33;3.33;;;;;56.31;8.64;101623.34;5023946;28;45558;-81
2022/06/16 09:43:02;;;;;;;;;2.00;2.00;;;;;56.36;8.56;101618.91;5034787;28;46030;-79
2022/06/16 09:45:41;;;;;;;;;5.00;4.00;;;;;56.21;8.73;101622.66;5039905;28;45604;-81
2022/06/16 09:48:18;;;;;;;;;3.33;3.33;;;;;56.24;9.00;101618.69;5004273;28;45467;-81
2022/06/16 09:50:55;;;;;;;;;3.33;3.33;;;;;56.35;8.56;101623.97;5029733;28;45427;-82
2022/06/16 09:53:43;;;;;;;;;2.00;2.00;;;;;56.31;8.98;101616.66;5033628;28;45454;-83
2022/06/16 09:56:29;;;;;;;;;2.00;2.00;;;;;55.50;8.56;101604.81;5018711;28;45987;-83
2022/06/16 09:59:02;;;;;;;;;5.00;4.33;;;;;54.81;9.45;101583.34;4994953;28;45984;-84
2022/06/16 10:01:52;;;;;;;;;2.67;2.67;;;;;55.01;8.74;101607.06;5032350;28;45475;-82
2022/06/16 10:04:18;;;;;;;;;3.33;3.33;;;;;55.00;9.31;101578.97;4998575;28;45799;-80
2022/06/16 10:07:09;;;;;;;;;4.33;4.33;;;;;55.08;9.01;101602.91;5006875;28;47208;-81
2022/06/16 10:10:07;;;;;;;;;4.00;4.00;;;;;54.83;9.25;101584.47;5012718;28;45617;-82
2022/06/16 10:13:00;;;;;;;;;5.00;5.00;;;;;54.82;10.18;101606.34;5003360;28;45754;-81
2022/06/16 10:15:47;;;;;;;;;3.00;3.00;;;;;54.55;9.22;101610.28;5009552;28;45627;-83
2022/06/16 10:18:13;;;;;;;;;3.67;3.33;;;;;53.68;9.10;101549.16;5020465;28;45745;-82
2022/06/16 10:20:39;;;;;;;;;4.00;4.00;;;;;53.28;9.75;101570.69;5018398;28;45516;-80
2022/06/16 10:23:34;;;;;;;;;3.00;3.00;;;;;53.05;9.40;101593.50;5018953;28;45403;-82
2022/06/16 10:26:05;;;;;;;;;1.67;1.67;;;;;52.64;9.88;101601.53;5017930;28;45432;-82
2022/06/16 10:28:54;;;;;;;;;;;;;;;;;;;;;
2022/06/16 10:31:45;;;;;;;;;4.00;4.00;;;;;51.68;10.31;101577.84;5028103;28;72053;-84
2022/06/16 10:34:35;;;;;;;;;3.67;3.00;;;;;51.54;10.00;101618.03;5024179;28;45913;-83
2022/06/16 10:37:18;;;;;;;;;4.33;4.00;;;;;51.26;10.75;101605.28;5016027;28;46983;-83
2022/06/16 10:39:47;;;;;;;;;5.00;5.00;;;;;51.05;10.29;101615.66;5016060;28;45558;-84
2022/06/16 10:42:27;;;;;;;;;4.00;4.00;;;;;51.02;10.42;101611.56;5016183;28;45715;-82
2022/06/16 10:45:06;;;;;;;;;7.67;4.33;;;;;51.27;10.60;101566.00;5005560;28;45403;-84
2022/06/16 10:48:15;;;;;;;;;4.00;4.00;;;;;51.48;10.50;101558.53;5027343;28;45351;-83
2022/06/16 10:50:47;;;;;;;;;3.67;3.67;;;;;51.07;11.01;101580.13;5029390;28;45886;-81
2022/06/16 10:53:36;;;;;;;;;5.00;5.00;;;;;50.52;10.79;101575.31;5007514;28;45549;-83
2022/06/16 10:56:26;;;;;;;;;5.00;4.00;;;;;50.08;10.85;101578.00;5033330;28;45792;-81
2022/06/16 10:59:02;;;;;;;;;4.00;4.00;;;;;49.94;11.16;101585.94;5016603;28;45959;-82
2022/06/16 11:01:46;;;;;;;;;8.00;6.00;;;;;49.53;11.55;101558.44;5034652;28;47807;-81
2022/06/16 11:04:34;;;;;;;;;8.00;7.00;;;;;49.16;11.96;101543.22;5011696;28;46004;-83
2022/06/16 11:07:12;;;;;;;;;6.00;5.67;;;;;49.28;11.77;101600.75;5006060;28;45565;-82
2022/06/16 11:09:38;;;;;;;;;6.00;5.00;;;;;48.91;11.46;101582.63;5034761;28;45899;-81
2022/06/16 11:12:33;;;;;;;;;5.00;5.00;;;;;48.64;12.13;101593.72;5033999;28;45639;-85
2022/06/16 11:15:14;;;;;;;;;5.33;5.33;;;;;48.24;12.76;101597.56;5012088;28;45483;-81
2022/06/16 11:17:51;;;;;;;;;5.00;4.00;;;;;47.46;12.57;101589.28;5018607;28;45822;-81
2022/06/16 11:20:41;;;;;;;;;8.00;5.67;;;;;46.85;13.51;101586.25;5025244;28;45568;-84
2022/06/16 11:23:27;;;;;;;;;6.67;5.33;;;;;45.91;13.88;101604.25;5036509;28;46259;-84
2022/06/16 11:26:09;;;;;;;;;5.33;5.33;;;;;44.72;14.43;101579.44;5017765;28;45489;-82
2022/06/16 11:28:48;;;;;;;;;6.00;6.00;;;;;43.82;15.07;101594.44;5029023;28;46664;-82
2022/06/16 11:31:37;;;;;;;;;5.00;5.00;;;;;42.98;15.88;101589.19;5036812;28;45603;-86
2022/06/16 11:34:19;;;;;;;;;6.00;6.00;;;;;41.68;16.51;101545.69;5013369;28;46724;-81
2022/06/16 11:37:04;;;;;;;;;9.33;6.33;;;;;40.89;17.11;101566.19;5017797;28;45895;-80
2022/06/16 11:40:27;;;;;;;;;;;;;;;;;;;;;
2022/06/16 11:42:57;;;;;;;;;4.67;4.67;;;;;39.20;18.91;101592.88;5033510;28;45656;-81
2022/06/16 11:45:42;;;;;;;;;4.00;4.00;;;;;38.30;20.00;101571.22;5033386;28;46359;-81
2022/06/16 11:48:13;;;;;;;;;5.67;5.67;;;;;37.71;20.51;101597.00;5032512;28;45610;-81
2022/06/16 11:50:48;;;;;;;;;6.33;6.33;;;;;36.78;20.88;101563.28;5037987;28;45482;-82
2022/06/16 11:53:32;;;;;;;;;6.67;6.67;;;;;36.04;21.58;101582.47;5034514;28;45451;-82
2022/06/16 11:56:44;;;;;;;;;6.00;6.00;;;;;35.15;23.05;101583.38;5022680;28;46298;-83
2022/06/16 11:59:32;;;;;;;;;7.00;6.67;;;;;34.57;24.26;101598.50;5037488;28;45888;-81
2022/06/16 12:02:13;;;;;;;;;5.33;5.33;;;;;34.04;24.33;101601.03;5029860;28;45746;-82
2022/06/16 12:05:12;;;;;;;;;5.33;5.33;;;;;33.39;24.42;101572.09;5040417;28;45776;-86
2022/06/16 12:07:56;;;;;;;;;5.00;5.00;;;;;33.03;25.16;101590.53;5022844;28;46968;-84
2022/06/16 12:11:26;;;;;;;;;6.33;6.00;;;;;32.40;25.03;101576.84;5019732;28;45336;-84
2022/06/16 12:14:13;;;;;;;;;4.33;4.33;;;;;32.02;26.68;101584.06;4995559;28;45754;-85
2022/06/16 12:16:59;;;;;;;;;5.33;5.33;;;;;31.85;27.70;101595.44;4997857;28;45512;-83
2022/06/16 12:19:45;;;;;;;;;5.00;5.00;;;;;31.62;27.93;101592.75;4980696;28;47662;-83
2022/06/16 12:22:20;;;;;;;;;5.00;5.00;;;;;31.37;28.67;101582.19;5002198;28;45326;-83
2022/06/16 12:25:01;;;;;;;;;6.67;6.00;;;;;31.22;29.22;101592.00;5014044;28;45640;-81
2022/06/16 12:27:59;;;;;;;;;7.67;7.33;;;;;31.14;29.56;101590.81;5017209;28;46071;-80
2022/06/16 12:30:56;;;;;;;;;5.00;5.00;;;;;31.07;29.60;101593.28;5028512;28;47354;-81
2022/06/16 12:33:28;;;;;;;;;4.33;4.33;;;;;30.97;28.30;101585.88;5021335;28;45838;-81
2022/06/16 12:36:11;;;;;;;;;5.67;4.67;;;;;30.93;28.01;101587.69;5020220;28;45610;-82
2022/06/16 12:38:49;;;;;;;;;5.67;5.33;;;;;30.87;28.07;101594.66;5034979;28;45455;-79
2022/06/16 12:41:21;;;;;;;;;4.33;4.33;;;;;30.76;27.04;101583.63;5025291;28;45658;-83
2022/06/16 12:43:58;;;;;;;;;4.33;4.33;;;;;30.32;27.09;101522.28;5035612;28;45533;-82
2022/06/16 12:46:31;;;;;;;;;4.00;4.00;;;;;30.32;26.68;101531.59;5042955;28;45403;-81
2022/06/16 12:49:04;;;;;;;;;4.00;4.00;;;;;30.14;27.79;101525.00;5035463;28;45830;-83
2022/06/16 12:51:37;;;;;;;;;4.33;4.33;;;;;30.24;28.64;101557.84;5021428;28;45498;-82
2022/06/16 12:54:08;;;;;;;;;4.33;4.33;;;;;30.14;29.96;101546.81;5024985;28;45746;-82
2022/06/16 12:56:51;;;;;;;;;4.00;4.00;;;;;30.22;30.51;101565.81;5028779;28;45460;-83
2022/06/16 12:59:27;;;;;;;;;4.67;4.67;;;;;29.91;31.74;101513.72;5014683;28;44825;-81
2022/06/16 13:01:59;;;;;;;;;6.00;6.00;;;;;29.86;32.19;101513.00;5017480;28;46460;-82
2022/06/16 13:04:34;;;;;;;;;5.33;5.33;;;;;30.07;32.30;101556.56;5026478;28;45574;-83
2022/06/16 13:07:10;;;;;;;;;4.33;4.33;;;;;29.98;32.01;101544.34;5005258;28;45476;-80